Time;durP1;ratioP1;P1;durP2;ratioP2;P2;SDS_P1;SDS_P2;PMS_P1;PMS_P2;Temp;Humidity;BMP_temperature;BMP_pressure;BME280_temperature;BME280_humidity;BME280_pressure;Samples;Min_cycle;Max_cycle;Signal;HPM_P1;HPM_P2
2021/03/19 00:00:27;;;;;;;13.82;11.38;;;-1.20;98.60;;;;;;5052807;28;20511;-88
2021/03/19 00:02:55;;;;;;;15.43;9.25;;;-1.20;98.60;;;;;;5050996;28;20045;-81
2021/03/19 00:05:25;;;;;;;15.38;10.75;;;-1.20;98.40;;;;;;5050752;28;20056;-79
2021/03/19 00:07:56;;;;;;;17.77;12.25;;;-1.20;98.70;;;;;;5046075;28;20053;-79
2021/03/19 00:10:28;;;;;;;14.93;10.23;;;-1.20;98.60;;;;;;5031469;28;20087;-79
2021/03/19 00:13:08;;;;;;;14.98;10.23;;;-1.20;98.70;;;;;;5033676;28;20514;-79
2021/03/19 00:15:37;;;;;;;18.38;11.55;;;-1.20;98.50;;;;;;5050067;28;20041;-79
2021/03/19 00:18:06;;;;;;;13.20;11.18;;;-1.30;98.80;;;;;;5050680;28;20053;-79
2021/03/19 00:20:40;;;;;;;14.43;9.85;;;-1.20;98.70;;;;;;5051662;28;20049;-79
2021/03/19 00:23:09;;;;;;;16.02;10.90;;;-1.20;98.80;;;;;;5050228;28;20044;-79
2021/03/19 00:25:38;;;;;;;19.63;11.45;;;-1.20;98.70;;;;;;5050865;28;20049;-78
2021/03/19 00:28:06;;;;;;;15.32;10.50;;;-1.30;98.60;;;;;;5051661;28;20037;-79
2021/03/19 00:30:34;;;;;;;15.38;11.43;;;-1.30;99.00;;;;;;5050448;28;20419;-78
2021/03/19 00:33:02;;;;;;;16.92;11.73;;;-1.30;99.10;;;;;;5017825;28;20047;-78
2021/03/19 00:35:30;;;;;;;17.65;12.57;;;-1.30;98.90;;;;;;5017239;28;20041;-78
2021/03/19 00:37:57;;;;;;;18.27;11.43;;;-1.30;99.10;;;;;;5051828;28;20518;-78
2021/03/19 00:40:25;;;;;;;18.70;10.32;;;-1.30;99.30;;;;;;5051507;28;20048;-78
2021/03/19 00:42:52;;;;;;;14.10;10.35;;;-1.30;98.90;;;;;;5033225;28;20041;-78
2021/03/19 00:45:20;;;;;;;19.38;12.65;;;-1.40;99.20;;;;;;5051397;28;20053;-78
2021/03/19 00:47:50;;;;;;;20.42;12.77;;;-1.30;99.20;;;;;;5051130;28;20369;-78
2021/03/19 00:50:29;;;;;;;14.95;10.07;;;-1.30;99.20;;;;;;5053716;28;20051;-78
2021/03/19 00:52:56;;;;;;;19.08;13.00;;;-1.30;99.10;;;;;;5052505;28;20048;-79
2021/03/19 00:55:24;;;;;;;15.57;10.82;;;-1.30;99.20;;;;;;5070972;28;20406;-78
2021/03/19 00:57:52;;;;;;;15.63;10.90;;;-1.30;99.20;;;;;;5071009;28;20051;-79
2021/03/19 01:00:26;;;;;;;11.48;8.32;;;-1.40;99.10;;;;;;5070349;28;20045;-79
2021/03/19 01:02:54;;;;;;;15.50;10.27;;;-1.40;99.20;;;;;;5069834;28;20051;-79
2021/03/19 01:05:34;;;;;;;21.15;13.43;;;-1.50;99.20;;;;;;5052857;28;20053;-79
2021/03/19 01:08:04;;;;;;;15.23;10.18;;;-1.60;99.30;;;;;;5070389;28;20041;-78
2021/03/19 01:10:35;;;;;;;21.65;12.40;;;-1.50;99.10;;;;;;5053479;28;20049;-78
2021/03/19 01:13:03;;;;;;;21.13;13.13;;;-1.40;99.20;;;;;;5072002;28;20053;-79
2021/03/19 01:15:32;;;;;;;16.90;11.98;;;-1.40;99.30;;;;;;5071104;28;20279;-79
2021/03/19 01:18:00;;;;;;;18.20;10.75;;;-1.30;99.20;;;;;;5064772;28;20053;-78
2021/03/19 01:20:30;;;;;;;16.23;10.90;;;-1.20;99.10;;;;;;5050783;28;20037;-78
2021/03/19 01:22:59;;;;;;;18.20;11.93;;;-1.20;99.10;;;;;;5050614;28;20052;-78
2021/03/19 01:25:29;;;;;;;15.73;11.50;;;-1.20;99.20;;;;;;5050806;28;20048;-78
2021/03/19 01:27:57;;;;;;;17.48;12.38;;;-1.10;99.20;;;;;;5051554;28;20044;-79
2021/03/19 01:30:28;;;;;;;15.82;10.85;;;-1.10;99.10;;;;;;5050570;28;20053;-78
2021/03/19 01:32:55;;;;;;;20.00;10.75;;;-1.00;98.90;;;;;;5050957;28;20053;-78
2021/03/19 01:35:25;;;;;;;18.90;12.27;;;-1.10;98.90;;;;;;5049561;28;20041;-78
2021/03/19 01:37:54;;;;;;;18.23;11.48;;;-1.10;98.90;;;;;;5051039;28;20057;-78
2021/03/19 01:40:26;;;;;;;21.02;13.10;;;-1.10;98.80;;;;;;5033275;28;20483;-78
2021/03/19 01:42:59;;;;;;;19.15;10.52;;;-1.10;98.80;;;;;;5050580;28;20116;-78
2021/03/19 01:46:04;;;;;;;14.52;12.48;;;-1.10;98.90;;;;;;5051554;28;20053;-78
2021/03/19 01:49:09;;;;;;;16.70;11.43;;;-1.00;98.80;;;;;;5050641;28;20068;-78
2021/03/19 01:52:16;;;;;;;15.52;9.63;;;-1.00;99.00;;;;;;5050322;28;20056;-78
2021/03/19 01:55:21;;;;;;;16.88;11.68;;;-1.10;99.00;;;;;;5050545;28;20361;-78
2021/03/19 01:58:26;;;;;;;18.08;14.13;;;-1.00;99.20;;;;;;5049808;28;20113;-78
2021/03/19 02:01:31;;;;;;;18.83;12.25;;;-1.10;99.20;;;;;;5050698;28;20045;-85
2021/03/19 02:04:38;;;;;;;16.42;12.52;;;-1.00;99.30;;;;;;5016434;28;20049;-84
2021/03/19 02:07:43;;;;;;;19.33;12.05;;;-1.00;99.40;;;;;;5031338;28;20045;-85
2021/03/19 02:10:50;;;;;;;15.65;11.00;;;-1.00;99.30;;;;;;5001085;28;20052;-85
2021/03/19 02:13:55;;;;;;;19.02;12.68;;;-1.00;99.40;;;;;;5005550;28;20046;-84
2021/03/19 02:17:00;;;;;;;23.27;14.27;;;-1.00;99.40;;;;;;5001034;28;20385;-84
2021/03/19 02:20:05;;;;;;;20.20;14.40;;;-1.00;99.50;;;;;;5016590;28;20484;-80
2021/03/19 02:23:10;;;;;;;18.13;14.32;;;-1.00;99.60;;;;;;5033431;28;20053;-80
2021/03/19 02:26:15;;;;;;;12.90;10.65;;;-1.00;99.60;;;;;;5017642;28;20053;-80
2021/03/19 02:29:20;;;;;;;15.25;11.02;;;-1.00;99.60;;;;;;5034010;28;20055;-80
2021/03/19 02:32:18;;;;;;;19.38;13.13;;;-1.00;99.60;;;;;;5016020;28;20053;-80
2021/03/19 02:34:55;;;;;;;14.98;11.57;;;-1.00;99.70;;;;;;5034150;28;20048;-81
2021/03/19 02:37:27;;;;;;;20.50;13.43;;;-0.90;99.50;;;;;;5033294;28;20054;-80
2021/03/19 02:39:54;;;;;;;18.33;11.07;;;-0.90;99.50;;;;;;5033812;28;20053;-80
2021/03/19 02:42:25;;;;;;;15.98;10.80;;;-0.80;99.40;;;;;;5033828;28;20068;-80
2021/03/19 02:44:53;;;;;;;17.03;13.00;;;-0.90;99.40;;;;;;5017119;28;20057;-81
2021/03/19 02:47:21;;;;;;;13.82;11.00;;;-0.90;99.30;;;;;;5016880;28;20034;-81
2021/03/19 02:49:49;;;;;;;22.38;14.45;;;-0.90;99.20;;;;;;5034152;28;20073;-81
2021/03/19 02:52:23;;;;;;;18.77;12.60;;;-0.90;99.20;;;;;;5032258;28;20050;-81
2021/03/19 02:55:01;;;;;;;23.00;13.13;;;-0.90;99.20;;;;;;5016284;28;20037;-81
2021/03/19 02:57:28;;;;;;;21.75;12.88;;;-0.90;99.10;;;;;;5032636;28;20704;-80
2021/03/19 02:59:56;;;;;;;16.05;10.93;;;-0.80;99.20;;;;;;5016545;28;20401;-81
2021/03/19 03:02:23;;;;;;;20.65;13.35;;;-0.80;98.90;;;;;;5032627;28;20056;-81
2021/03/19 03:04:51;;;;;;;24.55;13.77;;;-0.80;98.70;;;;;;5016883;28;20060;-81
2021/03/19 03:07:23;;;;;;;21.90;12.70;;;-0.80;98.70;;;;;;4999760;28;20759;-81
2021/03/19 03:09:50;;;;;;;19.52;11.40;;;-0.80;98.90;;;;;;5025974;28;20502;-81
2021/03/19 03:12:19;;;;;;;17.30;11.02;;;-0.90;98.80;;;;;;5051826;28;20045;-81
2021/03/19 03:14:47;;;;;;;16.55;11.80;;;-0.90;98.40;;;;;;5036116;28;20048;-81
2021/03/19 03:17:15;;;;;;;20.50;13.60;;;-0.80;98.60;;;;;;5052251;28;20057;-81
2021/03/19 03:19:43;;;;;;;16.25;11.57;;;-0.80;98.40;;;;;;5030816;28;20045;-80
2021/03/19 03:22:11;;;;;;;18.42;11.68;;;-0.80;98.30;;;;;;5016310;28;20049;-81
2021/03/19 03:24:40;;;;;;;15.52;9.55;;;-0.90;98.60;;;;;;5015981;28;20492;-81
2021/03/19 03:27:08;;;;;;;21.52;12.75;;;-0.80;98.80;;;;;;5032676;28;20045;-81
2021/03/19 03:29:36;;;;;;;21.58;12.75;;;-0.90;98.50;;;;;;5016529;28;20061;-80
2021/03/19 03:32:05;;;;;;;18.77;13.38;;;-0.90;98.30;;;;;;5031787;28;20050;-80
2021/03/19 03:34:33;;;;;;;26.13;13.07;;;-1.00;98.60;;;;;;5003891;28;20668;-81
2021/03/19 03:37:00;;;;;;;21.25;11.52;;;-1.00;98.70;;;;;;5036010;28;20071;-80
2021/03/19 03:39:31;;;;;;;16.60;11.52;;;-1.00;98.70;;;;;;5052171;28;20051;-80
2021/03/19 03:42:02;;;;;;;14.38;11.63;;;-1.00;98.90;;;;;;5035633;28;20053;-80
2021/03/19 03:44:30;;;;;;;16.45;10.93;;;-1.10;98.80;;;;;;5052126;28;20068;-80
2021/03/19 03:46:58;;;;;;;16.98;11.02;;;-1.20;98.90;;;;;;5052523;28;20052;-80
2021/03/19 03:49:26;;;;;;;15.27;11.73;;;-1.10;98.90;;;;;;5064253;28;20056;-81
2021/03/19 03:51:54;;;;;;;15.50;10.82;;;-1.10;98.70;;;;;;5055029;28;20044;-80
2021/03/19 03:54:22;;;;;;;14.65;9.95;;;-1.10;98.90;;;;;;5071395;28;20048;-80
2021/03/19 03:56:50;;;;;;;19.00;14.38;;;-1.10;98.60;;;;;;5068466;28;20052;-80
2021/03/19 03:59:17;;;;;;;16.08;9.60;;;-1.10;98.60;;;;;;5068491;28;20059;-80
2021/03/19 04:01:45;;;;;;;18.75;12.45;;;-1.00;98.60;;;;;;5068027;28;20056;-80
2021/03/19 04:04:19;;;;;;;15.15;11.15;;;-1.10;98.50;;;;;;5053973;28;20044;-80
2021/03/19 04:06:46;;;;;;;17.13;11.63;;;-1.20;98.50;;;;;;5072893;28;20420;-80
2021/03/19 04:09:14;;;;;;;19.02;13.02;;;-1.20;98.60;;;;;;5072701;28;20380;-79
2021/03/19 04:11:43;;;;;;;18.13;11.45;;;-1.10;98.70;;;;;;5054292;28;20056;-78
2021/03/19 04:14:15;;;;;;;14.75;9.48;;;-1.10;98.90;;;;;;5072506;28;20052;-78
2021/03/19 04:16:45;;;;;;;21.40;12.75;;;-1.10;98.90;;;;;;5072035;28;20051;-78
2021/03/19 04:19:12;;;;;;;13.25;9.65;;;-1.20;99.00;;;;;;5070577;28;20048;-78
2021/03/19 04:21:41;;;;;;;17.50;11.73;;;-1.10;98.90;;;;;;5071163;28;20056;-79
2021/03/19 04:24:09;;;;;;;18.45;11.30;;;-1.10;98.90;;;;;;5070883;28;20049;-79
2021/03/19 04:26:37;;;;;;;12.68;9.55;;;-1.10;98.90;;;;;;5070804;28;20057;-79
2021/03/19 04:29:04;;;;;;;15.00;12.52;;;-1.10;98.70;;;;;;5071161;28;20380;-79
2021/03/19 04:31:32;;;;;;;17.98;11.50;;;-1.10;98.80;;;;;;5052373;28;20056;-79
2021/03/19 04:33:59;;;;;;;23.63;11.73;;;-1.10;99.00;;;;;;5052991;28;20116;-79
2021/03/19 04:36:34;;;;;;;18.35;12.60;;;-1.10;99.00;;;;;;5069614;28;20423;-79
2021/03/19 04:39:04;;;;;;;17.02;11.40;;;-1.20;98.80;;;;;;5069510;28;20502;-79
2021/03/19 04:41:32;;;;;;;18.38;11.07;;;-1.10;98.60;;;;;;5052733;28;20053;-78
2021/03/19 04:44:00;;;;;;;17.13;11.82;;;-1.10;98.60;;;;;;5050939;28;20381;-79
2021/03/19 04:46:27;;;;;;;18.85;13.38;;;-1.10;98.70;;;;;;5034637;28;20055;-79
2021/03/19 04:48:55;;;;;;;17.45;10.82;;;-1.10;98.40;;;;;;5069661;28;20075;-79
2021/03/19 04:51:25;;;;;;;13.90;10.00;;;-1.10;98.60;;;;;;5052749;28;20047;-79
2021/03/19 04:53:53;;;;;;;13.55;10.65;;;-1.10;98.50;;;;;;5053613;28;20395;-79
2021/03/19 04:56:21;;;;;;;18.50;11.95;;;-1.10;97.80;;;;;;5069689;28;20048;-79
2021/03/19 04:58:49;;;;;;;16.05;9.48;;;-1.20;98.30;;;;;;5069235;28;20612;-79
2021/03/19 05:01:18;;;;;;;15.57;10.35;;;-1.10;98.20;;;;;;5053030;28;20063;-79
2021/03/19 05:03:47;;;;;;;17.27;9.50;;;-1.10;98.20;;;;;;5036591;28;20051;-79
2021/03/19 05:06:15;;;;;;;13.30;10.18;;;-0.90;98.20;;;;;;5069623;28;20059;-79
2021/03/19 05:08:44;;;;;;;14.45;10.88;;;-1.00;98.10;;;;;;5036049;28;20051;-80
2021/03/19 05:11:14;;;;;;;14.23;8.73;;;-1.00;97.80;;;;;;5070496;28;20041;-79
2021/03/19 05:13:42;;;;;;;15.70;12.35;;;-0.90;97.90;;;;;;5037100;28;20044;-79
2021/03/19 05:16:10;;;;;;;17.02;11.10;;;-1.00;98.00;;;;;;5037040;28;20072;-79
2021/03/19 05:18:38;;;;;;;16.75;10.05;;;-1.00;97.90;;;;;;5052314;28;20045;-79
2021/03/19 05:21:11;;;;;;;14.45;9.60;;;-1.00;98.00;;;;;;5068696;28;20055;-79
2021/03/19 05:23:39;;;;;;;12.88;9.60;;;-1.00;98.30;;;;;;5051997;28;20053;-79
2021/03/19 05:26:06;;;;;;;15.48;11.57;;;-1.00;98.20;;;;;;5053433;28;20061;-80
2021/03/19 05:28:34;;;;;;;12.68;9.18;;;-1.00;98.30;;;;;;5070230;28;20055;-79
2021/03/19 05:31:05;;;;;;;16.58;10.18;;;-1.10;98.50;;;;;;5053504;28;20048;-79
2021/03/19 05:33:48;;;;;;;17.88;13.07;;;-1.10;98.40;;;;;;5071351;28;20060;-79
2021/03/19 05:36:20;;;;;;;16.25;10.00;;;-1.10;98.40;;;;;;5070137;28;20052;-79
2021/03/19 05:38:47;;;;;;;;;;;-1.10;98.10;;;;;;5053299;28;20056;-79
2021/03/19 05:41:16;;;;;;;16.73;11.05;;;-1.10;98.20;;;;;;5071104;28;19920;-78
2021/03/19 05:43:48;;;;;;;11.60;8.98;;;-1.00;98.70;;;;;;5074987;28;20045;-79
2021/03/19 05:46:26;;;;;;;16.92;12.30;;;-1.00;98.60;;;;;;5075498;28;20453;-79
2021/03/19 05:49:03;;;;;;;20.25;13.98;;;-1.00;98.80;;;;;;5073378;28;20063;-79
2021/03/19 05:51:42;;;;;;;18.33;10.88;;;-1.10;99.30;;;;;;5057901;28;20039;-81
2021/03/19 05:54:24;;;;;;;18.15;10.82;;;-1.10;99.80;;;;;;5073134;28;20051;-80
2021/03/19 05:57:03;;;;;;;17.92;12.25;;;-1.10;99.90;;;;;;5074403;28;20040;-79
2021/03/19 05:59:31;;;;;;;14.52;11.43;;;-1.20;99.90;;;;;;5074367;28;20059;-80
2021/03/19 06:01:59;;;;;;;24.48;14.23;;;-1.10;99.90;;;;;;5075950;28;20056;-79
2021/03/19 06:05:38;;;;;;;16.42;11.15;;;-1.10;99.90;;;;;;5075057;28;20045;-78
2021/03/19 06:08:07;;;;;;;15.07;12.55;;;-1.10;99.90;;;;;;5073521;28;20041;-78
2021/03/19 06:10:40;;;;;;;15.50;10.48;;;-1.10;99.50;;;;;;5072987;28;20411;-78
2021/03/19 06:13:11;;;;;;;19.05;11.07;;;-1.10;99.50;;;;;;5074303;28;20052;-78
2021/03/19 06:15:43;;;;;;;16.98;11.27;;;-1.00;99.60;;;;;;5074196;28;20055;-80
2021/03/19 06:18:29;;;;;;;24.15;11.32;;;-0.90;98.90;;;;;;5057217;28;20048;-80
2021/03/19 06:21:25;;;;;;;16.17;10.75;;;-0.80;98.60;;;;;;5056265;28;20406;-81
2021/03/19 06:24:05;;;;;;;15.38;12.02;;;-0.80;98.30;;;;;;5056359;28;20045;-79
2021/03/19 06:26:39;;;;;;;19.25;11.70;;;-0.70;98.40;;;;;;5057202;28;20052;-79
2021/03/19 06:29:15;;;;;;;12.55;10.45;;;-0.60;98.10;;;;;;5041250;28;20441;-79
2021/03/19 06:32:04;;;;;;;16.95;11.25;;;-0.60;98.10;;;;;;5072978;28;20044;-80
2021/03/19 06:34:33;;;;;;;17.08;11.88;;;-0.60;97.90;;;;;;5072307;28;20052;-79
2021/03/19 06:37:06;;;;;;;12.23;9.38;;;-0.50;97.80;;;;;;5056102;28;20053;-80
2021/03/19 06:39:47;;;;;;;27.00;12.23;;;-0.40;97.50;;;;;;5073287;28;20395;-79
2021/03/19 06:42:31;;;;;;;15.93;12.30;;;-0.30;97.50;;;;;;5056241;28;20052;-79
2021/03/19 06:45:11;;;;;;;18.30;11.68;;;-0.20;97.00;;;;;;5054037;28;20059;-79
2021/03/19 06:47:55;;;;;;;14.73;11.38;;;-0.20;96.40;;;;;;5069517;28;20430;-80
2021/03/19 06:50:23;;;;;;;18.13;11.38;;;-0.20;96.90;;;;;;5053607;28;20063;-79
2021/03/19 06:53:23;;;;;;;14.98;9.48;;;-0.20;96.80;;;;;;5035158;28;20056;-79
2021/03/19 06:56:14;;;;;;;14.77;10.63;;;-0.10;96.50;;;;;;5054513;28;20525;-79
2021/03/19 06:58:46;;;;;;;16.17;12.30;;;-0.10;96.70;;;;;;5038131;28;20064;-79
2021/03/19 07:01:34;;;;;;;18.73;10.30;;;-0.20;96.80;;;;;;5055458;28;20047;-79
2021/03/19 07:04:14;;;;;;;14.48;10.00;;;-0.30;97.20;;;;;;5053881;28;20214;-79
2021/03/19 07:07:06;;;;;;;15.30;12.23;;;-0.40;97.90;;;;;;5021260;28;20048;-79
2021/03/19 07:09:59;;;;;;;16.33;12.10;;;-0.40;97.80;;;;;;5039623;28;20049;-78
2021/03/19 07:12:48;;;;;;;19.67;12.25;;;-0.40;98.50;;;;;;5038427;28;20040;-78
2021/03/19 07:15:34;;;;;;;18.50;12.52;;;-0.30;98.80;;;;;;5072223;28;20048;-78
2021/03/19 07:18:28;;;;;;;18.25;10.43;;;-0.20;98.60;;;;;;5070339;28;20439;-77
2021/03/19 07:21:10;;;;;;;19.13;12.85;;;-0.20;98.20;;;;;;5050536;28;20518;-78
2021/03/19 07:24:14;;;;;;;18.30;10.68;;;-0.20;98.20;;;;;;5091666;28;20052;-78
2021/03/19 07:27:07;;;;;;;18.90;13.00;;;0.00;97.50;;;;;;5088810;28;20051;-79
2021/03/19 07:29:58;;;;;;;20.42;11.18;;;-0.10;97.50;;;;;;5055213;28;20053;-81
2021/03/19 07:32:34;;;;;;;21.00;12.07;;;-0.10;96.90;;;;;;5066870;28;20052;-83
2021/03/19 07:35:30;;;;;;;19.25;12.93;;;0.10;97.50;;;;;;5067415;28;20044;-79
2021/03/19 07:38:32;;;;;;;17.48;11.63;;;0.10;97.10;;;;;;5062511;28;20059;-80
2021/03/19 07:41:12;;;;;;;19.58;13.07;;;0.20;97.00;;;;;;5043330;28;20044;-81
2021/03/19 07:44:05;;;;;;;23.00;14.80;;;0.20;96.80;;;;;;5065963;28;20395;-80
2021/03/19 07:46:59;;;;;;;22.00;13.38;;;0.40;96.70;;;;;;5071943;28;20427;-81
2021/03/19 07:49:39;;;;;;;20.23;15.45;;;0.50;96.00;;;;;;5068347;28;20060;-83
2021/03/19 07:52:34;;;;;;;16.15;11.35;;;0.60;95.90;;;;;;5071686;28;20048;-83
2021/03/19 07:55:07;;;;;;;16.02;11.45;;;0.70;95.90;;;;;;5034291;28;20049;-82
2021/03/19 07:57:57;;;;;;;24.13;12.95;;;0.70;95.60;;;;;;5052182;28;20064;-82
2021/03/19 08:01:00;;;;;;;18.15;13.07;;;0.70;95.70;;;;;;5050648;28;20071;-82
2021/03/19 08:03:32;;;;;;;20.45;13.70;;;0.80;95.80;;;;;;5028017;28;20048;-82
2021/03/19 08:06:05;;;;;;;21.05;13.95;;;0.70;95.40;;;;;;5090067;22;20056;-82
2021/03/19 08:08:42;;;;;;;20.95;12.15;;;0.70;96.10;;;;;;5054203;28;20048;-79
2021/03/19 08:11:26;;;;;;;14.05;11.18;;;0.60;96.30;;;;;;5053284;28;20411;-79
2021/03/19 08:14:19;;;;;;;21.55;12.70;;;0.50;96.50;;;;;;5064190;28;20052;-79
2021/03/19 08:17:21;;;;;;;16.00;11.93;;;0.60;96.40;;;;;;5059406;28;20063;-80
2021/03/19 08:20:23;;;;;;;20.40;14.15;;;0.60;96.30;;;;;;5073039;28;20055;-80
2021/03/19 08:22:58;;;;;;;;;;;0.70;96.30;;;;;;5075455;28;20107;-79
2021/03/19 08:25:33;;;;;;;19.50;12.38;;;0.70;96.70;;;;;;5050391;28;19924;-79
2021/03/19 08:28:22;;;;;;;16.77;11.73;;;0.80;96.20;;;;;;5033404;28;20041;-79
2021/03/19 08:31:21;;;;;;;16.55;9.75;;;0.70;96.60;;;;;;5049093;28;20052;-79
2021/03/19 08:34:22;;;;;;;27.48;14.50;;;0.70;96.40;;;;;;5038007;28;20730;-80
2021/03/19 08:36:52;;;;;;;18.38;12.77;;;0.80;96.30;;;;;;5034061;28;20488;-81
2021/03/19 08:39:43;;;;;;;17.25;12.52;;;1.00;96.00;;;;;;5033037;28;20399;-82
2021/03/19 08:42:14;;;;;;;19.50;11.98;;;1.20;95.40;;;;;;5061316;28;20054;-80
2021/03/19 08:44:43;;;;;;;15.30;11.02;;;1.00;95.30;;;;;;5073751;28;20063;-80
2021/03/19 08:47:29;;;;;;;16.10;10.48;;;0.80;95.70;;;;;;5075013;28;20487;-80
2021/03/19 08:50:21;;;;;;;20.92;13.55;;;0.70;96.10;;;;;;5050103;28;20053;-80
2021/03/19 08:53:06;;;;;;;20.80;10.20;;;0.70;96.30;;;;;;5028246;28;20558;-83
2021/03/19 08:55:36;;;;;;;16.55;11.38;;;0.80;96.10;;;;;;5034861;28;20076;-84
2021/03/19 08:58:44;;;;;;;22.35;13.10;;;0.80;95.70;;;;;;5034630;28;20045;-83
2021/03/19 09:01:11;;;;;;;15.77;11.32;;;0.90;95.90;;;;;;4983851;28;20053;-84
2021/03/19 09:03:47;;;;;;;18.42;12.98;;;0.90;95.70;;;;;;5018205;28;20052;-84
2021/03/19 09:06:22;;;;;;;19.15;13.82;;;1.00;96.20;;;;;;5017280;28;20057;-84
2021/03/19 09:08:55;;;;;;;15.25;12.60;;;1.10;95.60;;;;;;5033308;28;20395;-83
2021/03/19 09:11:45;;;;;;;17.13;11.68;;;1.10;95.60;;;;;;5050739;28;20045;-82
2021/03/19 09:14:12;;;;;;;21.67;11.88;;;1.20;95.80;;;;;;5022653;28;20048;-83
2021/03/19 09:16:40;;;;;;;17.63;13.00;;;0.90;95.80;;;;;;5039099;28;20051;-83
2021/03/19 09:19:39;;;;;;;22.08;12.68;;;0.80;96.30;;;;;;5025650;28;20045;-83
2021/03/19 09:22:33;;;;;;;23.20;12.45;;;0.70;97.00;;;;;;5074473;28;20056;-82
2021/03/19 09:25:13;;;;;;;15.50;10.77;;;0.60;97.00;;;;;;5057393;28;20055;-83
2021/03/19 09:28:00;;;;;;;17.48;13.38;;;0.50;97.00;;;;;;5041443;28;20036;-83
2021/03/19 09:30:41;;;;;;;26.33;16.45;;;0.60;97.00;;;;;;5054455;28;20048;-82
2021/03/19 09:34:00;;;;;;;19.30;13.57;;;0.60;97.60;;;;;;5021294;28;20048;-82
2021/03/19 09:36:54;;;;;;;17.23;13.40;;;0.60;97.40;;;;;;4993424;28;20473;-82
2021/03/19 09:39:59;;;;;;;18.55;11.95;;;0.60;97.50;;;;;;5021082;28;20056;-82
2021/03/19 09:42:28;;;;;;;21.45;14.05;;;0.60;97.10;;;;;;5069708;28;20059;-83
2021/03/19 09:45:01;;;;;;;18.27;12.88;;;0.60;97.10;;;;;;5095048;28;20048;-83
2021/03/19 09:47:34;;;;;;;18.42;14.98;;;0.70;97.20;;;;;;5094839;28;20054;-82
2021/03/19 09:50:09;;;;;;;25.42;16.58;;;0.70;97.00;;;;;;5095903;28;20044;-83
2021/03/19 09:52:37;;;;;;;19.13;13.85;;;0.80;96.90;;;;;;5053674;28;20049;-82
2021/03/19 09:55:20;;;;;;;22.75;13.10;;;1.00;97.30;;;;;;5054750;28;20041;-83
2021/03/19 09:57:50;;;;;;;24.25;16.52;;;1.00;96.80;;;;;;5034042;28;20045;-83
2021/03/19 10:00:24;;;;;;;21.63;16.20;;;1.20;96.20;;;;;;5016791;28;20057;-83
2021/03/19 10:02:52;;;;;;;20.67;13.82;;;1.30;95.60;;;;;;5064969;28;20044;-83
2021/03/19 10:05:24;;;;;;;22.92;14.35;;;1.30;95.80;;;;;;5020152;28;20048;-84
2021/03/19 10:07:56;;;;;;;15.18;10.77;;;1.30;95.50;;;;;;5034689;28;20210;-84
2021/03/19 10:10:31;;;;;;;14.50;11.13;;;0.80;95.30;;;;;;5053627;28;20404;-84
2021/03/19 10:13:13;;;;;;;15.30;11.50;;;0.80;95.60;;;;;;5047987;28;20040;-84
2021/03/19 10:15:41;;;;;;;16.25;11.68;;;0.70;95.50;;;;;;5089991;28;20048;-79
2021/03/19 10:18:46;;;;;;;17.70;14.45;;;0.60;95.80;;;;;;5063578;28;20060;-79
2021/03/19 10:21:20;;;;;;;15.70;11.02;;;0.60;96.50;;;;;;4994903;28;20041;-75
2021/03/19 10:23:57;;;;;;;19.23;13.27;;;0.60;96.60;;;;;;5067929;28;20036;-75
2021/03/19 10:26:32;;;;;;;13.73;11.80;;;0.50;97.10;;;;;;5072068;28;20134;-76
2021/03/19 10:29:11;;;;;;;15.65;12.15;;;0.40;96.80;;;;;;5071127;28;20056;-76
2021/03/19 10:31:51;;;;;;;13.68;10.48;;;0.40;96.80;;;;;;5054092;28;20040;-75
2021/03/19 10:34:29;;;;;;;14.23;11.85;;;0.50;96.70;;;;;;5071224;28;20048;-78
2021/03/19 10:37:11;;;;;;;13.07;9.68;;;0.60;95.90;;;;;;5071357;28;20041;-79
2021/03/19 10:39:51;;;;;;;19.85;11.85;;;0.50;95.70;;;;;;5072658;28;20075;-80
2021/03/19 10:42:46;;;;;;;12.45;9.95;;;0.50;95.40;;;;;;5077585;28;20486;-79
2021/03/19 10:45:36;;;;;;;13.93;11.20;;;0.60;95.20;;;;;;5092480;28;20040;-79
2021/03/19 10:48:18;;;;;;;14.40;11.88;;;0.60;94.70;;;;;;5092647;28;20384;-79
2021/03/19 10:51:18;;;;;;;16.67;10.63;;;0.60;94.00;;;;;;5073020;28;20057;-80
2021/03/19 10:53:57;;;;;;;12.98;10.02;;;0.80;94.90;;;;;;5052656;28;20438;-80
2021/03/19 10:56:27;;;;;;;15.23;13.45;;;0.90;93.80;;;;;;5035133;28;20040;-81
2021/03/19 10:59:26;;;;;;;15.50;12.30;;;0.90;93.10;;;;;;5053130;28;20414;-81
2021/03/19 11:02:14;;;;;;;13.98;10.90;;;1.00;92.80;;;;;;5035093;28;20112;-81
2021/03/19 11:05:06;;;;;;;15.07;11.13;;;1.30;92.30;;;;;;5060999;28;20045;-80
2021/03/19 11:07:43;;;;;;;12.73;9.73;;;2.10;91.80;;;;;;5039190;28;20831;-80
2021/03/19 11:10:26;;;;;;;16.38;10.32;;;2.90;90.80;;;;;;5032598;28;20056;-79
2021/03/19 11:13:10;;;;;;;14.88;9.10;;;3.40;87.70;;;;;;5030523;28;20050;-79
2021/03/19 11:15:41;;;;;;;16.08;10.50;;;3.20;86.30;;;;;;5031300;28;20084;-80
2021/03/19 11:18:17;;;;;;;15.30;9.68;;;3.10;86.90;;;;;;5026227;28;20057;-79
2021/03/19 11:21:01;;;;;;;14.80;11.65;;;3.20;86.50;;;;;;5014171;28;20050;-79
2021/03/19 11:23:36;;;;;;;13.20;11.80;;;2.80;87.90;;;;;;5013496;28;20072;-79
2021/03/19 11:26:15;;;;;;;15.80;13.23;;;2.50;89.50;;;;;;5010621;28;20651;-77
2021/03/19 11:29:14;;;;;;;18.10;12.20;;;2.30;90.50;;;;;;5011555;28;20069;-80
2021/03/19 11:32:20;;;;;;;16.75;10.90;;;2.50;90.90;;;;;;5015963;28;20049;-79
2021/03/19 11:34:50;;;;;;;14.02;11.38;;;2.40;90.10;;;;;;5024023;28;20044;-79
2021/03/19 11:37:22;;;;;;;20.10;10.60;;;2.10;90.50;;;;;;5038156;28;20049;-81
2021/03/19 11:39:51;;;;;;;17.95;11.95;;;2.30;91.00;;;;;;5043320;28;20045;-80
2021/03/19 11:42:26;;;;;;;16.63;12.35;;;2.30;91.20;;;;;;5039352;28;20492;-84
2021/03/19 11:45:16;;;;;;;18.70;10.18;;;2.30;91.80;;;;;;5039088;28;20064;-84
2021/03/19 11:47:57;;;;;;;17.00;11.95;;;2.40;91.90;;;;;;5022500;28;20480;-84
2021/03/19 11:50:41;;;;;;;19.60;13.45;;;2.50;90.40;;;;;;5033091;28;20806;-86
2021/03/19 11:53:36;;;;;;;16.33;13.20;;;2.90;92.20;;;;;;5029579;28;20060;-82
2021/03/19 11:56:10;;;;;;;16.55;10.55;;;2.90;91.90;;;;;;5010478;28;20054;-84
2021/03/19 11:58:38;;;;;;;15.55;12.13;;;3.20;90.50;;;;;;5032074;28;20041;-80
2021/03/19 12:01:07;;;;;;;17.35;10.25;;;3.10;88.80;;;;;;5029081;28;20049;-79
2021/03/19 12:03:43;;;;;;;12.55;11.07;;;2.60;86.20;;;;;;5027161;28;20068;-80
2021/03/19 12:06:13;;;;;;;13.75;10.38;;;2.10;90.80;;;;;;5070631;28;20044;-80
2021/03/19 12:08:43;;;;;;;9.93;8.75;;;1.40;93.50;;;;;;5071495;28;20056;-80
2021/03/19 12:11:25;;;;;;;14.70;13.00;;;1.10;95.30;;;;;;5070566;28;20049;-81
2021/03/19 12:13:54;;;;;;;14.23;10.77;;;1.00;94.90;;;;;;5071624;28;20048;-80
2021/03/19 12:16:22;;;;;;;18.80;13.00;;;1.00;95.10;;;;;;5053927;28;20072;-83
2021/03/19 12:18:50;;;;;;;17.95;11.90;;;1.10;95.30;;;;;;5071419;28;20045;-79
2021/03/19 12:21:19;;;;;;;16.15;10.95;;;1.20;95.10;;;;;;5053410;28;20056;-80
2021/03/19 12:23:46;;;;;;;16.23;12.25;;;1.30;94.10;;;;;;5072242;28;20056;-79
2021/03/19 12:26:14;;;;;;;15.98;12.63;;;1.30;94.20;;;;;;5071181;28;20056;-81
2021/03/19 12:28:42;;;;;;;14.43;9.73;;;1.30;94.30;;;;;;5071668;28;20576;-80
2021/03/19 12:31:11;;;;;;;14.43;10.98;;;1.60;94.40;;;;;;5037502;28;20044;-80
2021/03/19 12:34:15;;;;;;;16.52;11.40;;;1.60;93.90;;;;;;5071447;28;20041;-81
2021/03/19 12:36:42;;;;;;;15.25;11.65;;;1.40;94.20;;;;;;5070057;28;20399;-81
2021/03/19 12:39:10;;;;;;;13.68;9.98;;;1.60;94.00;;;;;;5044589;28;20057;-79
2021/03/19 12:41:38;;;;;;;13.50;10.55;;;1.50;93.60;;;;;;5064656;28;20498;-79
2021/03/19 12:44:06;;;;;;;12.60;10.55;;;1.40;92.80;;;;;;5071288;28;20094;-79
2021/03/19 12:46:35;;;;;;;11.48;10.27;;;1.10;94.10;;;;;;5070759;28;20056;-79
2021/03/19 12:49:05;;;;;;;11.15;9.30;;;1.00;93.20;;;;;;5071209;28;20048;-77
2021/03/19 12:51:33;;;;;;;13.77;11.38;;;1.10;94.40;;;;;;5069463;28;20044;-76
2021/03/19 12:54:01;;;;;;;15.15;10.18;;;1.10;94.90;;;;;;5069934;28;20041;-76
2021/03/19 12:56:30;;;;;;;14.00;11.35;;;1.10;96.10;;;;;;5070638;28;20059;-77
2021/03/19 12:58:57;;;;;;;17.75;11.93;;;1.00;95.30;;;;;;5071231;28;20063;-78
2021/03/19 13:01:25;;;;;;;13.27;10.40;;;1.20;95.30;;;;;;5052958;28;20062;-79
2021/03/19 13:03:53;;;;;;;14.65;11.30;;;1.40;94.20;;;;;;5050599;28;20052;-78
2021/03/19 13:06:22;;;;;;;11.25;9.32;;;1.60;93.60;;;;;;5062363;28;20494;-79
2021/03/19 13:08:51;;;;;;;10.43;9.38;;;1.60;92.70;;;;;;5075502;28;20048;-80
2021/03/19 13:11:20;;;;;;;13.00;10.18;;;1.70;91.90;;;;;;5073911;28;20056;-80
2021/03/19 13:13:48;;;;;;;10.60;9.50;;;1.70;91.50;;;;;;5074377;28;20502;-80
2021/03/19 13:16:16;;;;;;;11.73;10.27;;;1.80;91.80;;;;;;5074298;28;20048;-79
2021/03/19 13:18:43;;;;;;;12.43;10.57;;;1.90;90.90;;;;;;5072205;28;20044;-78
2021/03/19 13:21:11;;;;;;;16.13;11.70;;;2.00;91.20;;;;;;5071054;28;20052;-80
2021/03/19 13:23:48;;;;;;;13.85;12.13;;;1.90;92.00;;;;;;5071010;28;20399;-84